Patterson, New York
Current Conditions -  °F | °C
As of 1:53 AM on Sunday 26 Oct 2014 (Local Time) from KDXR Reporting Station
Broken Clouds Broken Clouds  
Wind Chill: 53°   Ceiling: 10000
Heat Index: 53°   Visibility: 10mi
Dew Point: 46°   Wind: 3mph
Humidity: 77%   Direction: 270°W
Pressure: 29.55"   Gusts: NA
Location:  41.51°N, 73.61°W
Report Text: KDXR 260553Z AUTO 27003KT 10SM BKN100 12/08 A2955 RMK AO2 SLP006 60001 T01170078 10161 20100 58010
Loading
Personal Weather Stations






























Interactive Weather Map
Tropical Storm Tracking
New forecast layout! Learn more

10-Day Weather Forecast

Advertisements
Track Severe Weather on mobile